Time;durP1;ratioP1;P1;durP2;ratioP2;P2;SDS_P1;SDS_P2;PMS_P1;PMS_P2;Temp;Humidity;BMP_temperature;BMP_pressure;BME280_temperature;BME280_humidity;BME280_pressure;Samples;Min_cycle;Max_cycle;Signal;HPM_P1;HPM_P2
2023/07/01 00:01:40;;;;;;;3.67;3.47;;;17.40;99.90;;;;;;5125534;27;20041;-83
2023/07/01 00:04:05;;;;;;;3.85;3.65;;;17.40;99.90;;;;;;5144795;27;20419;-81
2023/07/01 00:06:31;;;;;;;4.10;3.80;;;17.40;99.90;;;;;;5150115;27;20048;-83
2023/07/01 00:08:57;;;;;;;3.95;3.75;;;17.40;99.90;;;;;;5143558;27;20123;-82
2023/07/01 00:11:22;;;;;;;4.05;3.78;;;17.50;99.90;;;;;;5146983;27;20118;-81
2023/07/01 00:13:48;;;;;;;3.70;3.50;;;17.40;99.90;;;;;;5124313;27;20047;-82
2023/07/01 00:16:14;;;;;;;3.90;3.70;;;17.40;99.90;;;;;;5143526;27;20038;-83
2023/07/01 00:18:40;;;;;;;3.70;3.50;;;17.40;99.90;;;;;;5140287;27;20030;-82
2023/07/01 00:21:06;;;;;;;3.67;3.47;;;17.40;99.90;;;;;;5167611;27;20129;-81
2023/07/01 00:23:32;;;;;;;3.78;3.58;;;17.50;99.90;;;;;;5143332;27;20207;-83
2023/07/01 00:25:58;;;;;;;3.42;3.22;;;17.50;99.90;;;;;;5156386;27;20042;-81
2023/07/01 00:28:24;;;;;;;3.72;3.53;;;17.50;99.90;;;;;;5140054;27;20775;-82
2023/07/01 00:30:49;;;;;;;3.30;3.10;;;17.50;99.90;;;;;;5148108;27;20940;-82
2023/07/01 00:33:15;;;;;;;3.60;3.40;;;17.50;99.90;;;;;;5146435;27;20042;-83
2023/07/01 00:35:40;;;;;;;3.50;3.30;;;17.50;99.90;;;;;;5139725;27;20049;-89
2023/07/01 00:38:06;;;;;;;3.40;3.20;;;17.50;99.90;;;;;;5148757;27;20034;-84
2023/07/01 00:40:32;;;;;;;3.33;3.13;;;17.60;99.90;;;;;;5148756;27;20847;-82
2023/07/01 00:42:57;;;;;;;3.10;2.90;;;17.60;99.90;;;;;;5127817;27;20391;-84
2023/07/01 00:45:23;;;;;;;3.10;2.90;;;17.60;99.90;;;;;;5146422;27;20053;-83
2023/07/01 00:47:49;;;;;;;3.13;2.92;;;17.60;99.90;;;;;;5143914;27;20042;-83
2023/07/01 00:50:15;;;;;;;3.25;3.05;;;17.70;99.90;;;;;;5148294;27;20102;-85
2023/07/01 00:52:42;;;;;;;3.10;2.90;;;17.70;99.90;;;;;;5143056;27;20256;-85
2023/07/01 00:55:10;;;;;;;3.15;2.95;;;17.70;99.90;;;;;;5133902;27;20046;-89
2023/07/01 00:57:36;;;;;;;2.95;2.75;;;17.70;99.90;;;;;;5132040;27;20039;-86
2023/07/01 01:00:04;;;;;;;2.83;2.63;;;17.80;99.90;;;;;;5149227;27;20098;-84
2023/07/01 01:02:37;;;;;;;2.70;2.55;;;17.80;99.90;;;;;;5152691;27;20042;-84
2023/07/01 01:05:15;;;;;;;2.97;2.78;;;17.80;99.90;;;;;;5146424;27;20050;-83
2023/07/01 01:07:52;;;;;;;2.65;2.53;;;17.80;99.90;;;;;;5145567;27;20046;-84
2023/07/01 01:10:22;;;;;;;2.45;2.35;;;17.80;99.90;;;;;;5142232;27;20069;-84
2023/07/01 01:12:50;;;;;;;2.20;2.10;;;17.80;99.90;;;;;;5141761;27;20042;-84
2023/07/01 01:15:16;;;;;;;2.15;2.05;;;17.80;99.90;;;;;;5129137;27;20087;-87
2023/07/01 01:17:43;;;;;;;2.13;2.03;;;17.90;99.90;;;;;;5134791;27;20483;-85
2023/07/01 01:20:16;;;;;;;2.10;2.00;;;17.90;99.90;;;;;;5150002;27;20050;-85
2023/07/01 01:22:49;;;;;;;2.00;1.90;;;17.90;99.90;;;;;;5146495;27;20770;-86
2023/07/01 01:25:28;;;;;;;2.08;1.98;;;17.90;99.90;;;;;;5139766;27;20094;-85
2023/07/01 01:27:55;;;;;;;1.98;1.88;;;17.90;99.90;;;;;;5138685;27;20075;-83
2023/07/01 01:30:24;;;;;;;2.00;1.90;;;18.00;99.90;;;;;;5133842;27;20098;-85
2023/07/01 01:32:50;;;;;;;2.38;2.28;;;18.00;99.90;;;;;;5137143;27;20038;-86
2023/07/01 01:35:16;;;;;;;1.80;1.70;;;18.00;99.90;;;;;;5146931;27;20137;-82
2023/07/01 01:37:54;;;;;;;1.70;1.60;;;18.10;99.90;;;;;;5139211;27;20664;-84
2023/07/01 01:40:27;;;;;;;1.70;1.60;;;18.00;99.90;;;;;;5143363;27;20045;-84
2023/07/01 01:43:02;;;;;;;2.00;1.90;;;18.10;99.90;;;;;;5145601;27;20399;-83
2023/07/01 01:45:27;;;;;;;2.00;1.90;;;18.10;99.90;;;;;;5147356;27;20066;-81
2023/07/01 01:47:54;;;;;;;1.60;1.50;;;18.20;99.90;;;;;;5148114;27;20043;-85
2023/07/01 01:50:21;;;;;;;1.70;1.60;;;18.20;99.90;;;;;;5148108;27;20038;-83
2023/07/01 01:52:50;;;;;;;1.58;1.48;;;18.10;99.90;;;;;;5139145;27;20771;-83
2023/07/01 01:55:17;;;;;;;1.50;1.40;;;18.20;99.90;;;;;;5151104;27;20483;-84
2023/07/01 01:57:43;;;;;;;1.40;1.40;;;18.20;99.90;;;;;;5145272;27;20054;-81
2023/07/01 02:00:12;;;;;;;1.52;1.42;;;18.20;99.90;;;;;;5142370;27;20076;-82
2023/07/01 02:02:38;;;;;;;1.35;1.35;;;18.20;99.90;;;;;;5150168;27;20041;-85
2023/07/01 02:05:04;;;;;;;1.25;1.25;;;18.20;99.90;;;;;;5143163;27;20091;-81
2023/07/01 02:07:30;;;;;;;1.23;1.23;;;18.20;99.90;;;;;;5134802;27;20050;-81
2023/07/01 02:09:56;;;;;;;1.27;1.27;;;18.20;99.90;;;;;;5149454;27;20046;-81
2023/07/01 02:12:23;;;;;;;1.52;1.42;;;18.10;99.90;;;;;;5140800;27;20140;-83
2023/07/01 02:14:48;;;;;;;1.20;1.20;;;18.10;99.90;;;;;;5133019;27;20097;-81
2023/07/01 02:17:14;;;;;;;1.10;1.10;;;18.10;99.90;;;;;;5139608;27;20074;-83
2023/07/01 02:19:40;;;;;;;1.10;1.10;;;18.10;99.90;;;;;;5151379;27;20040;-86
2023/07/01 02:22:05;;;;;;;1.00;1.00;;;18.10;99.90;;;;;;5149099;27;20459;-84
2023/07/01 02:24:31;;;;;;;1.00;1.00;;;18.10;99.90;;;;;;5141061;27;20384;-83
2023/07/01 02:26:56;;;;;;;1.10;1.10;;;18.20;99.90;;;;;;5146884;27;20046;-82
2023/07/01 02:29:22;;;;;;;1.00;1.00;;;18.20;99.90;;;;;;5141245;27;20046;-78
2023/07/01 02:31:48;;;;;;;1.00;1.00;;;18.10;99.90;;;;;;5145775;27;20046;-81
2023/07/01 02:34:13;;;;;;;1.00;1.00;;;18.10;99.90;;;;;;5151554;27;20075;-80
2023/07/01 02:36:42;;;;;;;1.00;1.00;;;18.00;99.90;;;;;;5146039;27;20057;-80
2023/07/01 02:39:07;;;;;;;1.10;1.10;;;17.90;99.90;;;;;;5144104;27;20050;-84
2023/07/01 02:41:33;;;;;;;1.10;1.10;;;17.90;99.90;;;;;;5139541;27;20042;-84
2023/07/01 02:43:58;;;;;;;1.10;1.10;;;17.80;99.90;;;;;;5141772;27;20042;-84
2023/07/01 02:46:25;;;;;;;1.10;1.10;;;17.90;99.90;;;;;;5150265;27;20047;-83
2023/07/01 02:48:50;;;;;;;1.10;1.10;;;17.80;99.90;;;;;;5151650;27;20836;-78
2023/07/01 02:51:16;;;;;;;1.10;1.10;;;17.80;99.90;;;;;;5148646;27;20046;-85
2023/07/01 02:53:42;;;;;;;1.10;1.10;;;17.80;99.90;;;;;;5131920;27;20045;-85
2023/07/01 02:56:08;;;;;;;1.10;1.10;;;17.80;99.90;;;;;;5147459;27;20550;-83
2023/07/01 02:58:33;;;;;;;1.25;1.25;;;17.70;99.90;;;;;;5149718;27;20042;-84
2023/07/01 03:00:59;;;;;;;1.20;1.20;;;17.70;99.90;;;;;;5147446;27;20161;-79
2023/07/01 03:03:24;;;;;;;1.30;1.30;;;17.70;99.90;;;;;;5136069;27;20483;-82
2023/07/01 03:05:50;;;;;;;1.55;1.45;;;17.70;99.90;;;;;;5144928;27;20118;-80
2023/07/01 03:08:16;;;;;;;1.48;1.38;;;17.80;99.90;;;;;;5150893;27;20039;-81
2023/07/01 03:10:41;;;;;;;1.48;1.40;;;17.80;99.90;;;;;;5153286;27;20595;-84
2023/07/01 03:13:07;;;;;;;1.38;1.30;;;17.80;99.90;;;;;;5144969;27;20490;-81
2023/07/01 03:15:32;;;;;;;1.30;1.30;;;17.80;99.90;;;;;;5156423;27;20571;-79
2023/07/01 03:17:58;;;;;;;1.20;1.20;;;17.80;99.90;;;;;;5148866;27;20037;-81
2023/07/01 03:20:24;;;;;;;1.20;1.20;;;17.80;99.90;;;;;;5149788;27;20658;-85
2023/07/01 03:22:54;;;;;;;1.13;1.13;;;17.70;99.90;;;;;;5131791;27;20442;-82
2023/07/01 03:25:20;;;;;;;1.20;1.20;;;17.70;99.90;;;;;;5151186;27;20585;-86
2023/07/01 03:27:46;;;;;;;1.17;1.17;;;17.60;99.90;;;;;;5151858;27;20038;-84
2023/07/01 03:30:13;;;;;;;1.20;1.20;;;17.60;99.90;;;;;;5152583;27;20050;-81
2023/07/01 03:32:40;;;;;;;1.30;1.30;;;17.60;99.90;;;;;;5130124;27;20394;-79
2023/07/01 03:35:06;;;;;;;1.25;1.25;;;17.60;99.90;;;;;;5162039;27;20130;-81
2023/07/01 03:37:32;;;;;;;1.20;1.20;;;17.50;99.90;;;;;;5134297;27;20083;-85
2023/07/01 03:39:58;;;;;;;1.30;1.30;;;17.60;99.90;;;;;;5145131;27;20042;-85
2023/07/01 03:42:23;;;;;;;1.20;1.20;;;17.60;99.90;;;;;;5145829;27;20178;-81
2023/07/01 03:44:49;;;;;;;1.20;1.20;;;17.50;99.90;;;;;;5160124;27;20062;-85
2023/07/01 03:47:14;;;;;;;1.20;1.20;;;17.50;99.90;;;;;;5148507;27;20450;-82
2023/07/01 03:49:40;;;;;;;1.30;1.30;;;17.50;99.90;;;;;;5151628;27;20511;-82
2023/07/01 03:52:08;;;;;;;1.40;1.30;;;17.50;99.90;;;;;;5148305;27;20038;-83
2023/07/01 03:54:33;;;;;;;1.20;1.20;;;17.50;99.90;;;;;;5144506;27;20144;-83
2023/07/01 03:56:59;;;;;;;1.55;1.45;;;17.50;99.90;;;;;;5154401;27;20129;-84
2023/07/01 03:59:25;;;;;;;1.60;1.50;;;17.40;99.90;;;;;;5136349;27;20478;-86
2023/07/01 04:01:50;;;;;;;1.70;1.60;;;17.50;99.90;;;;;;5151292;27;20038;-86
2023/07/01 04:04:16;;;;;;;1.55;1.45;;;17.50;99.90;;;;;;5145096;27;20050;-86
2023/07/01 04:06:42;;;;;;;1.65;1.55;;;17.50;99.90;;;;;;5146633;27;20076;-86
2023/07/01 04:09:12;;;;;;;1.63;1.52;;;17.50;99.90;;;;;;5148748;27;20057;-86
2023/07/01 04:11:39;;;;;;;1.70;1.60;;;17.50;99.90;;;;;;5149329;27;20106;-84
2023/07/01 04:14:04;;;;;;;1.60;1.50;;;17.40;99.90;;;;;;5147288;27;20680;-84
2023/07/01 04:16:30;;;;;;;1.70;1.60;;;17.40;99.90;;;;;;5151968;27;20077;-83
2023/07/01 04:18:56;;;;;;;1.63;1.52;;;17.40;99.90;;;;;;5148754;27;20038;-84
2023/07/01 04:21:22;;;;;;;1.65;1.55;;;17.40;99.90;;;;;;5144104;27;20055;-83
2023/07/01 04:23:51;;;;;;;1.67;1.58;;;17.30;99.90;;;;;;5156228;27;20109;-83
2023/07/01 04:26:18;;;;;;;1.70;1.60;;;17.40;99.90;;;;;;5143607;27;20038;-87
2023/07/01 04:28:43;;;;;;;1.70;1.60;;;17.10;99.90;;;;;;5148683;27;20042;-84
2023/07/01 04:31:09;;;;;;;1.70;1.60;;;17.00;99.90;;;;;;5150423;27;20058;-88
2023/07/01 04:33:35;;;;;;;1.65;1.55;;;16.70;99.90;;;;;;5147769;27;20049;-90
2023/07/01 04:36:00;;;;;;;1.58;1.48;;;16.60;99.90;;;;;;5143792;27;20403;-87
2023/07/01 04:38:26;;;;;;;1.58;1.48;;;16.60;99.90;;;;;;5148328;27;20053;-85
2023/07/01 04:40:53;;;;;;;1.63;1.52;;;16.50;99.90;;;;;;5154965;27;20517;-87
2023/07/01 04:43:20;;;;;;;1.80;1.70;;;16.50;99.90;;;;;;5131533;27;20042;-88
2023/07/01 04:45:45;;;;;;;1.70;1.60;;;16.40;99.90;;;;;;5153983;27;20045;-87
2023/07/01 04:48:11;;;;;;;1.83;1.73;;;16.40;99.90;;;;;;5134447;27;20046;-87
2023/07/01 04:50:37;;;;;;;1.92;1.83;;;16.40;99.90;;;;;;5149270;27;20506;-93
2023/07/01 04:53:02;;;;;;;2.00;1.90;;;16.40;99.90;;;;;;5158112;27;20109;-88
2023/07/01 04:55:28;;;;;;;2.00;1.90;;;16.30;99.90;;;;;;5129836;27;20160;-85
2023/07/01 04:57:54;;;;;;;2.00;1.90;;;16.30;99.90;;;;;;5136032;27;20038;-88
2023/07/01 05:00:21;;;;;;;2.08;1.98;;;16.20;99.90;;;;;;5156968;27;20053;-93
2023/07/01 05:02:47;;;;;;;2.00;1.90;;;16.30;99.90;;;;;;5155231;27;20038;-86
2023/07/01 05:05:13;;;;;;;2.08;1.98;;;16.30;99.90;;;;;;5148246;27;20114;-88
2023/07/01 05:07:41;;;;;;;1.90;1.80;;;16.30;99.90;;;;;;5143389;27;20042;-87
2023/07/01 05:10:07;;;;;;;2.08;1.98;;;16.20;99.90;;;;;;5130461;27;20031;-88
2023/07/01 05:12:33;;;;;;;2.00;1.90;;;16.20;99.90;;;;;;5135917;27;20072;-88
2023/07/01 05:14:58;;;;;;;2.03;1.92;;;16.20;99.90;;;;;;5134974;27;20073;-90
2023/07/01 05:17:24;;;;;;;2.10;2.00;;;16.20;99.90;;;;;;5130659;27;20137;-89
2023/07/01 05:19:50;;;;;;;2.00;1.90;;;16.40;99.90;;;;;;5154190;27;20042;-88
2023/07/01 05:22:15;;;;;;;2.00;1.90;;;16.30;99.90;;;;;;5146956;27;20046;-85
2023/07/01 05:24:41;;;;;;;1.90;1.80;;;16.20;99.90;;;;;;5151905;27;20042;-89
2023/07/01 05:27:07;;;;;;;2.00;1.90;;;16.30;99.90;;;;;;5145949;27;20046;-87
2023/07/01 05:29:32;;;;;;;1.80;1.70;;;16.20;99.90;;;;;;5128386;27;20752;-83
2023/07/01 05:31:58;;;;;;;1.95;1.85;;;16.30;99.90;;;;;;5143700;27;20043;-84
2023/07/01 05:34:24;;;;;;;1.90;1.80;;;16.30;99.90;;;;;;5151611;27;20037;-87
2023/07/01 05:36:50;;;;;;;1.92;1.83;;;16.30;99.90;;;;;;5142807;27;20045;-86
2023/07/01 05:39:16;;;;;;;1.85;1.75;;;16.40;99.90;;;;;;5145172;27;20038;-83
2023/07/01 05:41:42;;;;;;;1.88;1.77;;;16.50;99.90;;;;;;5133988;27;20132;-87
2023/07/01 05:44:10;;;;;;;1.77;1.67;;;16.50;99.90;;;;;;5147114;27;20126;-84
2023/07/01 05:46:35;;;;;;;1.70;1.60;;;16.60;99.90;;;;;;5143046;27;20046;-87
2023/07/01 05:49:04;;;;;;;1.80;1.70;;;16.60;99.90;;;;;;5143426;27;20038;-83
2023/07/01 05:51:30;;;;;;;1.70;1.60;;;16.70;99.90;;;;;;5129060;27;20046;-85
2023/07/01 05:53:55;;;;;;;1.60;1.50;;;16.60;99.90;;;;;;5130073;27;20507;-88
2023/07/01 05:56:23;;;;;;;1.70;1.60;;;16.60;99.90;;;;;;5130871;27;20213;-92
2023/07/01 05:58:49;;;;;;;1.70;1.60;;;16.70;99.90;;;;;;5145935;27;20665;-86
2023/07/01 06:01:15;;;;;;;1.70;1.60;;;16.70;99.90;;;;;;5144353;27;20050;-85
2023/07/01 06:03:40;;;;;;;1.70;1.60;;;16.80;99.90;;;;;;5147396;27;20038;-82
2023/07/01 06:06:06;;;;;;;1.73;1.63;;;16.80;99.90;;;;;;5154193;27;20049;-82
2023/07/01 06:08:32;;;;;;;1.75;1.65;;;16.80;99.90;;;;;;5153209;27;20384;-84
2023/07/01 06:10:57;;;;;;;1.70;1.60;;;16.90;99.90;;;;;;5152925;27;20042;-81
2023/07/01 06:13:23;;;;;;;1.60;1.50;;;16.80;99.90;;;;;;5142686;27;20104;-86
2023/07/01 06:15:48;;;;;;;1.70;1.60;;;16.90;99.90;;;;;;5152369;27;20109;-82
2023/07/01 06:18:14;;;;;;;1.60;1.50;;;16.80;99.90;;;;;;5150592;27;20089;-84
2023/07/01 06:20:40;;;;;;;1.60;1.50;;;16.90;99.90;;;;;;5152518;27;20054;-83
2023/07/01 06:23:05;;;;;;;1.60;1.50;;;16.90;99.90;;;;;;5150595;27;20052;-88
2023/07/01 06:25:31;;;;;;;1.50;1.40;;;16.90;99.90;;;;;;5156530;27;20057;-85
2023/07/01 06:27:57;;;;;;;1.50;1.40;;;17.00;99.90;;;;;;5154699;27;20049;-85
2023/07/01 06:30:22;;;;;;;1.50;1.40;;;16.90;99.90;;;;;;5148907;27;20067;-87
2023/07/01 06:32:48;;;;;;;1.30;1.30;;;17.00;99.90;;;;;;5146771;27;20372;-83
2023/07/01 06:35:13;;;;;;;1.50;1.40;;;17.00;99.90;;;;;;5139189;27;20042;-84
2023/07/01 06:37:39;;;;;;;1.60;1.50;;;17.00;99.90;;;;;;5146242;27;20046;-89
2023/07/01 06:40:05;;;;;;;1.50;1.40;;;16.90;99.90;;;;;;5150340;27;20121;-85
2023/07/01 06:42:32;;;;;;;1.50;1.40;;;16.90;99.90;;;;;;5133277;27;20137;-84
2023/07/01 06:44:57;;;;;;;1.50;1.40;;;16.90;99.90;;;;;;5152912;27;20042;-85
2023/07/01 06:47:23;;;;;;;1.30;1.30;;;16.90;99.90;;;;;;5158705;27;20042;-84
2023/07/01 06:49:49;;;;;;;1.30;1.30;;;16.90;99.90;;;;;;5151681;27;20112;-87
2023/07/01 06:52:14;;;;;;;1.25;1.25;;;16.90;99.90;;;;;;5147638;27;20044;-85
2023/07/01 06:54:40;;;;;;;1.10;1.10;;;16.90;99.90;;;;;;5156857;27;20050;-83
2023/07/01 06:57:05;;;;;;;1.10;1.10;;;17.00;99.90;;;;;;5136674;27;20463;-89
2023/07/01 06:59:34;;;;;;;1.10;1.10;;;16.90;99.90;;;;;;5137638;27;20486;-89
2023/07/01 07:02:00;;;;;;;1.08;1.08;;;17.00;99.90;;;;;;5146246;27;20376;-88
2023/07/01 07:04:26;;;;;;;1.02;1.02;;;17.00;99.90;;;;;;5133188;27;20049;-85
2023/07/01 07:06:51;;;;;;;1.08;1.08;;;17.00;99.90;;;;;;5155254;27;20402;-85
2023/07/01 07:09:17;;;;;;;1.00;1.00;;;17.00;99.90;;;;;;5145975;27;20475;-85
2023/07/01 07:11:45;;;;;;;1.00;1.00;;;17.00;99.90;;;;;;5173814;27;20050;-90
2023/07/01 07:14:11;;;;;;;1.00;1.00;;;17.10;99.90;;;;;;5144922;27;20652;-86
2023/07/01 07:16:37;;;;;;;1.00;1.00;;;17.10;99.90;;;;;;5133170;27;20043;-84
2023/07/01 07:19:03;;;;;;;0.93;0.93;;;17.20;99.90;;;;;;5150728;27;20109;-84
2023/07/01 07:21:28;;;;;;;0.90;0.90;;;17.10;99.90;;;;;;5151870;27;20054;-88
2023/07/01 07:23:54;;;;;;;0.90;0.90;;;17.20;99.90;;;;;;5144887;27;20420;-88
2023/07/01 07:26:20;;;;;;;0.90;0.90;;;17.20;99.90;;;;;;5139155;27;20073;-89
2023/07/01 07:28:45;;;;;;;0.90;0.90;;;17.30;99.90;;;;;;5136379;27;20034;-85
2023/07/01 07:31:11;;;;;;;0.82;0.82;;;17.30;99.90;;;;;;5153571;27;20037;-86
2023/07/01 07:33:37;;;;;;;0.80;0.80;;;17.30;99.90;;;;;;5140517;27;20046;-94
2023/07/01 07:36:03;;;;;;;0.80;0.80;;;17.40;99.90;;;;;;5125473;27;20041;-84
2023/07/01 07:38:28;;;;;;;0.80;0.80;;;17.40;99.90;;;;;;5148975;27;20103;-86
2023/07/01 07:40:54;;;;;;;0.80;0.80;;;17.40;99.90;;;;;;5128659;27;20548;-86
2023/07/01 07:43:19;;;;;;;0.70;0.70;;;17.40;99.90;;;;;;5152843;27;20046;-85
2023/07/01 07:45:45;;;;;;;0.70;0.70;;;17.40;99.90;;;;;;5147121;27;20075;-81
2023/07/01 07:48:11;;;;;;;0.60;0.60;;;17.50;99.90;;;;;;5150639;27;20042;-84
2023/07/01 07:50:36;;;;;;;0.60;0.60;;;17.40;99.90;;;;;;5149583;27;20042;-86
2023/07/01 07:53:03;;;;;;;0.68;0.68;;;17.50;99.90;;;;;;5130418;27;20103;-84
2023/07/01 07:55:33;;;;;;;0.60;0.60;;;17.40;99.90;;;;;;5156921;27;20057;-83
2023/07/01 07:58:02;;;;;;;0.73;0.73;;;17.60;99.90;;;;;;5151220;27;20042;-83
2023/07/01 08:00:28;;;;;;;0.82;0.82;;;17.60;99.90;;;;;;5142328;27;20042;-83
2023/07/01 08:02:54;;;;;;;0.73;0.73;;;17.60;99.90;;;;;;5143348;27;20047;-88
2023/07/01 08:05:21;;;;;;;0.73;0.73;;;17.70;99.90;;;;;;5125948;27;20038;-88
2023/07/01 08:07:47;;;;;;;0.70;0.70;;;17.60;99.90;;;;;;5137970;27;20038;-85
2023/07/01 08:10:15;;;;;;;0.70;0.70;;;17.50;99.90;;;;;;5119021;27;20053;-86
2023/07/01 08:12:40;;;;;;;0.63;0.63;;;17.60;99.90;;;;;;5141776;27;21741;-88
2023/07/01 08:15:07;;;;;;;0.70;0.70;;;17.60;99.90;;;;;;5138161;27;20042;-86
2023/07/01 08:17:32;;;;;;;0.65;0.65;;;17.70;99.90;;;;;;5135491;27;20052;-85
2023/07/01 08:19:58;;;;;;;0.60;0.60;;;17.70;99.90;;;;;;5133958;27;20050;-84
2023/07/01 08:22:24;;;;;;;0.60;0.60;;;17.80;99.90;;;;;;5125209;27;20076;-87
2023/07/01 08:24:49;;;;;;;0.70;0.70;;;17.80;99.90;;;;;;5144475;27;20434;-89
2023/07/01 08:27:15;;;;;;;0.60;0.60;;;18.00;99.90;;;;;;5134794;27;20709;-84
2023/07/01 08:29:41;;;;;;;0.65;0.65;;;18.10;99.90;;;;;;5129937;27;20034;-81
2023/07/01 08:32:07;;;;;;;0.60;0.60;;;18.00;99.90;;;;;;5146916;27;20121;-86
2023/07/01 08:34:35;;;;;;;0.70;0.70;;;18.00;99.90;;;;;;5148686;27;20045;-86
2023/07/01 08:37:01;;;;;;;0.70;0.70;;;18.20;99.90;;;;;;5140482;27;20496;-86
2023/07/01 08:39:27;;;;;;;0.60;0.60;;;18.00;99.90;;;;;;5123720;27;20049;-87
2023/07/01 08:42:03;;;;;;;0.68;0.68;;;18.00;99.90;;;;;;5149223;27;20047;-88
2023/07/01 08:44:29;;;;;;;0.60;0.60;;;18.20;99.90;;;;;;5145049;27;20158;-86
2023/07/01 08:46:56;;;;;;;0.68;0.68;;;18.20;99.90;;;;;;5150101;27;20133;-85
2023/07/01 08:49:23;;;;;;;0.60;0.60;;;18.10;99.90;;;;;;5137176;27;20949;-85
2023/07/01 08:52:06;;;;;;;0.60;0.60;;;18.00;99.90;;;;;;5118982;27;20083;-89
2023/07/01 08:54:34;;;;;;;0.70;0.70;;;18.10;99.90;;;;;;5139334;27;20062;-84
2023/07/01 08:57:00;;;;;;;0.60;0.60;;;17.90;99.90;;;;;;5121602;27;20141;-87
2023/07/01 08:59:27;;;;;;;0.63;0.63;;;18.00;99.90;;;;;;5125229;27;20043;-83
2023/07/01 09:01:54;;;;;;;0.70;0.70;;;18.00;99.90;;;;;;5126089;27;20046;-84
2023/07/01 09:04:19;;;;;;;0.60;0.60;;;17.90;99.90;;;;;;5131053;27;20586;-84
2023/07/01 09:06:45;;;;;;;0.65;0.65;;;17.80;99.90;;;;;;5135512;27;20038;-85
2023/07/01 09:09:11;;;;;;;0.70;0.70;;;17.80;99.90;;;;;;5140190;27;20051;-82
2023/07/01 09:11:37;;;;;;;0.70;0.70;;;17.90;99.90;;;;;;5141551;27;20046;-84
2023/07/01 09:14:03;;;;;;;0.80;0.80;;;17.80;99.90;;;;;;5132377;27;21657;-86
2023/07/01 09:16:34;;;;;;;0.80;0.80;;;18.00;99.90;;;;;;5133938;27;20038;-83
2023/07/01 09:19:10;;;;;;;0.80;0.80;;;17.90;99.90;;;;;;5150097;27;20054;-82
2023/07/01 09:21:37;;;;;;;0.90;0.90;;;18.00;99.90;;;;;;5142546;27;20056;-87
2023/07/01 09:24:08;;;;;;;0.73;0.73;;;18.00;99.90;;;;;;5122543;27;20049;-88
2023/07/01 09:26:34;;;;;;;0.70;0.70;;;17.90;99.90;;;;;;5130383;27;20043;-82
2023/07/01 09:29:14;;;;;;;0.70;0.70;;;18.00;99.90;;;;;;5142782;27;20083;-84
2023/07/01 09:31:48;;;;;;;0.70;0.70;;;18.10;99.90;;;;;;5141413;27;20051;-84
2023/07/01 09:34:14;;;;;;;0.70;0.70;;;18.10;99.90;;;;;;5123302;27;20099;-85
2023/07/01 09:36:40;;;;;;;0.73;0.73;;;18.30;99.90;;;;;;5149885;27;20046;-86
2023/07/01 09:39:09;;;;;;;0.80;0.80;;;18.30;99.90;;;;;;5151299;27;20117;-84
2023/07/01 09:41:35;;;;;;;0.73;0.73;;;18.30;99.90;;;;;;5145706;27;20089;-85
2023/07/01 09:44:13;;;;;;;0.80;0.80;;;18.40;99.90;;;;;;5136236;27;20138;-88
2023/07/01 09:46:43;;;;;;;0.80;0.80;;;18.30;99.90;;;;;;5128483;27;20101;-86
2023/07/01 09:49:09;;;;;;;0.80;0.80;;;18.40;99.90;;;;;;5130019;27;20057;-87
2023/07/01 09:51:46;;;;;;;0.80;0.80;;;18.40;99.90;;;;;;5148329;27;20726;-88
2023/07/01 09:54:29;;;;;;;0.70;0.70;;;18.30;99.90;;;;;;5149275;27;20075;-87
2023/07/01 09:56:56;;;;;;;0.80;0.80;;;18.30;99.90;;;;;;5145438;27;20065;-87
2023/07/01 09:59:23;;;;;;;0.80;0.80;;;18.40;99.90;;;;;;5142383;27;20039;-90
2023/07/01 10:01:54;;;;;;;0.98;0.98;;;18.20;99.90;;;;;;5125580;27;20075;-87
2023/07/01 10:04:25;;;;;;;0.93;0.93;;;18.40;99.90;;;;;;5140279;27;20061;-83
2023/07/01 10:06:51;;;;;;;1.00;1.00;;;18.40;99.90;;;;;;5146615;27;20049;-87
2023/07/01 10:09:16;;;;;;;1.00;1.00;;;18.60;99.90;;;;;;5125761;27;20744;-85
2023/07/01 10:11:43;;;;;;;0.90;0.90;;;18.30;99.90;;;;;;5149135;27;20060;-86
2023/07/01 10:14:10;;;;;;;0.90;0.90;;;18.50;99.90;;;;;;5146502;27;20088;-88
2023/07/01 10:16:49;;;;;;;1.00;1.00;;;18.20;99.90;;;;;;5124907;27;20594;-89
2023/07/01 10:19:34;;;;;;;1.10;1.10;;;18.40;99.90;;;;;;5125882;27;20050;-85
2023/07/01 10:22:31;;;;;;;1.00;1.00;;;18.30;99.90;;;;;;5145807;27;20037;-86
2023/07/01 10:25:06;;;;;;;1.00;1.00;;;18.50;99.90;;;;;;5126989;27;20178;-90
2023/07/01 10:27:44;;;;;;;1.10;1.10;;;18.40;99.90;;;;;;5125881;27;20047;-89
2023/07/01 10:30:10;;;;;;;1.15;1.15;;;18.40;99.90;;;;;;5129902;27;20034;-86
2023/07/01 10:32:36;;;;;;;1.33;1.23;;;18.30;99.90;;;;;;5145364;27;20125;-89
2023/07/01 10:35:05;;;;;;;1.20;1.20;;;18.30;99.90;;;;;;5129605;27;20124;-88
2023/07/01 10:37:35;;;;;;;1.10;1.10;;;18.50;99.90;;;;;;5127596;27;20047;-86
2023/07/01 10:40:25;;;;;;;1.20;1.20;;;18.70;99.90;;;;;;5146471;27;20043;-88
2023/07/01 10:42:51;;;;;;;1.20;1.20;;;18.60;99.90;;;;;;5111930;27;20593;-92
2023/07/01 10:45:16;;;;;;;1.30;1.30;;;18.90;99.90;;;;;;5126893;27;20046;-87
2023/07/01 10:48:02;;;;;;;1.30;1.30;;;19.00;99.90;;;;;;5130045;27;20514;-86
2023/07/01 10:50:28;;;;;;;1.23;1.23;;;19.20;99.90;;;;;;5144758;27;20093;-86
2023/07/01 10:52:57;;;;;;;1.35;1.35;;;19.10;99.90;;;;;;5126788;27;20668;-87
2023/07/01 10:55:49;;;;;;;1.50;1.40;;;19.10;99.90;;;;;;5139786;27;20060;-89
2023/07/01 10:58:24;;;;;;;1.42;1.35;;;19.10;99.90;;;;;;5122013;27;20150;-87
2023/07/01 11:00:53;;;;;;;1.30;1.30;;;19.30;99.90;;;;;;5140967;27;20099;-86
2023/07/01 11:03:37;;;;;;;1.30;1.30;;;19.20;99.90;;;;;;5143239;27;20390;-87
2023/07/01 11:06:03;;;;;;;;;;;19.20;99.90;;;;;;5122865;27;20047;-84
2023/07/01 11:08:31;;;;;;;1.50;1.40;;;19.00;99.90;;;;;;5143520;27;20014;-84
2023/07/01 11:10:57;;;;;;;1.50;1.40;;;19.30;99.90;;;;;;5151700;27;20045;-86
2023/07/01 11:13:23;;;;;;;1.52;1.42;;;19.50;99.90;;;;;;5144750;27;20125;-86
2023/07/01 11:16:03;;;;;;;1.33;1.33;;;19.30;99.90;;;;;;5126241;27;20134;-82
2023/07/01 11:18:46;;;;;;;1.30;1.30;;;19.30;99.90;;;;;;5147788;27;20066;-87
2023/07/01 11:21:13;;;;;;;1.30;1.30;;;19.30;99.90;;;;;;5138791;27;20054;-88
2023/07/01 11:23:51;;;;;;;1.38;1.38;;;19.20;99.90;;;;;;5124981;27;20042;-89
2023/07/01 11:26:24;;;;;;;1.30;1.30;;;19.20;99.90;;;;;;5144966;27;20128;-84
2023/07/01 11:28:50;;;;;;;1.33;1.33;;;19.30;99.90;;;;;;5131827;27;20034;-84
2023/07/01 11:31:17;;;;;;;1.30;1.30;;;19.40;99.90;;;;;;5141785;27;20053;-86
2023/07/01 11:33:47;;;;;;;1.40;1.38;;;19.40;99.90;;;;;;5140969;27;20047;-88
2023/07/01 11:36:14;;;;;;;1.38;1.38;;;19.40;99.90;;;;;;5136567;27;20042;-87
2023/07/01 11:38:44;;;;;;;1.00;1.00;;;19.40;99.90;;;;;;5125244;27;20042;-84
2023/07/01 11:41:15;;;;;;;0.88;0.88;;;19.50;99.90;;;;;;5154910;27;20047;-84
2023/07/01 11:43:41;;;;;;;0.80;0.80;;;19.50;99.90;;;;;;5146593;27;20101;-85
2023/07/01 11:46:07;;;;;;;0.82;0.82;;;19.70;99.90;;;;;;5138908;27;20265;-85
2023/07/01 11:48:33;;;;;;;0.77;0.77;;;19.60;99.90;;;;;;5143725;27;20050;-82
2023/07/01 11:50:58;;;;;;;0.75;0.75;;;19.60;99.90;;;;;;5148928;27;20042;-83
2023/07/01 11:53:28;;;;;;;0.73;0.73;;;19.50;99.90;;;;;;5147579;27;20043;-86
2023/07/01 11:56:02;;;;;;;0.70;0.70;;;19.70;99.90;;;;;;5148043;27;20045;-86
2023/07/01 11:58:39;;;;;;;0.73;0.73;;;19.70;99.90;;;;;;5131533;27;20046;-85
2023/07/01 12:01:22;;;;;;;0.70;0.70;;;19.80;99.90;;;;;;5149326;27;20088;-83
2023/07/01 12:03:48;;;;;;;0.60;0.60;;;19.80;99.90;;;;;;5123528;27;20087;-85
2023/07/01 12:06:18;;;;;;;0.60;0.60;;;20.10;99.90;;;;;;5136172;27;20038;-82
2023/07/01 12:08:54;;;;;;;0.60;0.60;;;20.00;99.90;;;;;;5121271;27;20038;-84
2023/07/01 12:11:22;;;;;;;0.60;0.60;;;20.10;99.90;;;;;;5143725;27;20045;-85
2023/07/01 12:13:48;;;;;;;0.60;0.60;;;20.10;99.90;;;;;;5147082;27;20479;-85
2023/07/01 12:16:14;;;;;;;0.60;0.60;;;20.10;99.90;;;;;;5137402;27;20070;-86
2023/07/01 12:18:40;;;;;;;0.60;0.60;;;20.40;99.90;;;;;;5145059;27;20100;-86
2023/07/01 12:21:06;;;;;;;0.60;0.60;;;20.40;99.90;;;;;;5149998;27;20049;-86
2023/07/01 12:23:44;;;;;;;0.70;0.70;;;20.20;99.90;;;;;;5127029;27;20046;-86
2023/07/01 12:26:13;;;;;;;0.70;0.70;;;20.40;99.90;;;;;;5142223;27;20053;-82
2023/07/01 12:28:40;;;;;;;0.70;0.70;;;20.20;99.90;;;;;;5146972;27;20054;-84
2023/07/01 12:31:07;;;;;;;0.80;0.80;;;20.20;99.90;;;;;;5151595;27;20057;-85
2023/07/01 12:33:36;;;;;;;0.80;0.80;;;20.20;99.90;;;;;;5143015;27;20439;-86
2023/07/01 12:36:02;;;;;;;0.80;0.80;;;20.10;99.90;;;;;;5142307;27;20038;-88
2023/07/01 12:38:31;;;;;;;0.80;0.80;;;20.00;99.90;;;;;;5137451;27;20054;-87
2023/07/01 12:40:57;;;;;;;0.80;0.80;;;20.20;99.90;;;;;;5140955;27;20053;-84
2023/07/01 12:43:27;;;;;;;0.70;0.70;;;20.20;99.90;;;;;;5133747;27;20050;-84
2023/07/01 12:45:53;;;;;;;0.80;0.80;;;20.20;99.90;;;;;;5137774;27;20099;-88
2023/07/01 12:48:21;;;;;;;0.80;0.80;;;20.20;99.90;;;;;;5143624;27;20517;-86
2023/07/01 12:50:47;;;;;;;0.80;0.80;;;20.30;99.90;;;;;;5146711;27;20042;-85